FAOR

Olifants River Bridge Landing Strip Airport

Olifants River Bridge, South Africa
METAR FAOR 172200Z 34004KT CAVOK 06/M02 Q1036 NOSIG
Observed Flight Rules
Jul-17 @ 22:00 UTC (54 minutes ago) Visual Flight Rules
Wind Visibility Clouds
340° at 4 knots 10,000+ meters
  • Clear skies
Temperatures Readings
Current 6°C / 43°F
Dewpoint -2°C / 28°F
Humidity 57%
Altimeter 30.59" Hg
Pressure 1036 hPa
Elevation 1700
METAR FAOR 172200Z 34004KT CAVOK 06/M02 Q1036 NOSIG
Observed Flight Rules
Jul-17 @ 22:00 UTC
(54 minutes ago)
VFR
Wind Visibility
340° at 4 knots 10,000+ meters
Clouds
  • Clear skies
Temperature Dewpoint
6°C / 43°F -2°C / 28°F
Humidity Altimeter Pressure
57% 30.59" Hg 1036 hPa